Time;durP1;ratioP1;P1;durP2;ratioP2;P2;SDS_P1;SDS_P2;PMS_P1;PMS_P2;Temp;Humidity;BMP_temperature;BMP_pressure;BME280_temperature;BME280_humidity;BME280_pressure;Samples;Min_cycle;Max_cycle;Signal;HPM_P1;HPM_P2
2021/11/30 00:01:16;;;;;;;8.70;6.13;;;5.40;98.50;;;;;;5052266;28;20199;-74
2021/11/30 00:03:42;;;;;;;8.07;6.30;;;5.40;98.50;;;;;;5052924;28;20852;-74
2021/11/30 00:06:10;;;;;;;12.27;7.23;;;5.40;98.50;;;;;;5049332;28;20261;-75
2021/11/30 00:08:37;;;;;;;12.20;7.50;;;5.40;98.50;;;;;;5049982;28;20293;-75
2021/11/30 00:11:05;;;;;;;10.80;6.43;;;5.40;98.50;;;;;;5051947;28;20179;-75
2021/11/30 00:13:32;;;;;;;9.97;6.97;;;5.50;98.50;;;;;;5049145;28;20199;-75
2021/11/30 00:15:58;;;;;;;6.70;5.40;;;5.50;98.50;;;;;;5050114;28;20940;-75
2021/11/30 00:18:25;;;;;;;7.30;6.07;;;5.60;98.50;;;;;;5052210;28;20211;-74
2021/11/30 00:20:52;;;;;;;8.63;6.13;;;5.60;98.50;;;;;;5050857;28;20260;-75
2021/11/30 00:23:18;;;;;;;7.73;5.57;;;5.70;98.50;;;;;;5049076;28;20188;-75
2021/11/30 00:25:44;;;;;;;11.10;7.03;;;5.70;98.50;;;;;;5049776;28;20247;-75
2021/11/30 00:28:11;;;;;;;6.97;6.03;;;5.80;98.50;;;;;;5050639;28;20215;-75
2021/11/30 00:30:38;;;;;;;13.43;7.37;;;5.80;98.50;;;;;;5051651;28;20184;-74
2021/11/30 00:33:05;;;;;;;11.43;6.97;;;5.80;98.50;;;;;;5047277;28;20218;-75
2021/11/30 00:35:32;;;;;;;10.83;6.73;;;5.80;98.50;;;;;;5052700;28;20215;-75
2021/11/30 00:37:58;;;;;;;7.93;5.40;;;5.80;98.50;;;;;;5056065;28;20180;-74
2021/11/30 00:40:25;;;;;;;7.73;6.17;;;5.80;98.50;;;;;;5054438;28;20581;-75
2021/11/30 00:42:52;;;;;;;7.60;5.60;;;5.90;98.50;;;;;;5052046;28;20212;-75
2021/11/30 00:45:19;;;;;;;8.03;5.60;;;5.90;98.50;;;;;;5053204;28;20215;-75
2021/11/30 00:47:57;;;;;;;6.30;5.57;;;5.90;98.50;;;;;;5055181;28;20729;-74
2021/11/30 00:50:26;;;;;;;10.03;6.03;;;5.90;98.50;;;;;;5057018;28;20178;-75
2021/11/30 00:52:54;;;;;;;8.67;5.63;;;6.00;98.50;;;;;;5048629;28;20270;-75
2021/11/30 00:55:21;;;;;;;9.37;6.80;;;6.00;98.50;;;;;;5056277;28;20190;-75
2021/11/30 00:57:47;;;;;;;11.93;6.23;;;6.00;98.50;;;;;;5055094;28;20219;-74
2021/11/30 01:00:18;;;;;;;9.53;7.10;;;6.00;98.50;;;;;;5053518;28;20211;-75
2021/11/30 01:02:45;;;;;;;7.93;5.97;;;6.00;98.50;;;;;;5055804;28;20244;-74
2021/11/30 01:05:12;;;;;;;10.20;7.23;;;6.10;98.50;;;;;;5057232;28;20211;-75
2021/11/30 01:07:38;;;;;;;9.50;5.70;;;6.10;98.50;;;;;;5045360;28;20291;-74
2021/11/30 01:10:07;;;;;;;8.13;5.60;;;6.10;98.50;;;;;;5056200;28;20666;-74
2021/11/30 01:12:33;;;;;;;12.73;7.33;;;6.10;98.50;;;;;;5050858;28;20183;-74
2021/11/30 01:14:59;;;;;;;9.13;6.97;;;6.10;98.50;;;;;;5053134;28;20187;-75
2021/11/30 01:17:25;;;;;;;10.37;7.27;;;6.10;98.50;;;;;;5051611;28;20176;-74
2021/11/30 01:19:51;;;;;;;8.80;7.17;;;6.00;98.50;;;;;;5054851;28;20269;-74
2021/11/30 01:22:17;;;;;;;9.30;7.27;;;6.00;98.50;;;;;;5048987;28;21781;-75
2021/11/30 01:24:43;;;;;;;10.40;8.40;;;6.00;98.50;;;;;;5050852;28;20218;-74
2021/11/30 01:27:08;;;;;;;12.97;7.63;;;6.00;98.50;;;;;;5054434;28;20175;-75
2021/11/30 01:29:34;;;;;;;10.90;7.97;;;6.00;98.50;;;;;;5050066;28;20229;-75
2021/11/30 01:32:00;;;;;;;10.47;8.67;;;5.90;98.50;;;;;;5053660;28;20232;-75
2021/11/30 01:34:26;;;;;;;12.57;8.73;;;5.90;98.50;;;;;;5054256;28;20202;-75
2021/11/30 01:36:52;;;;;;;10.03;7.23;;;5.80;98.50;;;;;;5048614;28;20207;-75
2021/11/30 01:39:18;;;;;;;12.77;7.97;;;5.80;98.50;;;;;;5054598;28;20645;-75
2021/11/30 01:41:45;;;;;;;4.67;4.37;;;5.70;98.50;;;;;;5041014;28;20183;-75
2021/11/30 01:44:25;;;;;;;2.70;2.50;;;5.40;98.50;;;;;;5054599;28;20239;-75
2021/11/30 01:46:55;;;;;;;0.37;0.37;;;5.20;97.90;;;;;;5049566;28;20241;-75
2021/11/30 01:49:34;;;;;;;1.40;0.50;;;4.80;96.20;;;;;;5052170;28;20736;-74
2021/11/30 01:52:05;;;;;;;1.13;0.50;;;4.50;96.20;;;;;;5045254;28;20259;-74
2021/11/30 01:54:32;;;;;;;0.20;0.20;;;4.20;96.20;;;;;;5045207;28;20682;-74
2021/11/30 01:56:58;;;;;;;0.13;0.13;;;3.80;96.10;;;;;;5049081;28;20186;-74
2021/11/30 01:59:25;;;;;;;0.00;0.00;;;3.40;96.90;;;;;;5048521;28;20577;-74
2021/11/30 02:01:52;;;;;;;0.10;0.10;;;3.10;97.70;;;;;;5043066;28;20188;-74
2021/11/30 02:04:18;;;;;;;0.00;0.00;;;2.80;98.30;;;;;;5049661;28;20225;-74
2021/11/30 02:06:43;;;;;;;0.00;0.00;;;2.60;98.50;;;;;;5053712;28;20175;-74
2021/11/30 02:09:09;;;;;;;0.10;0.10;;;2.40;98.50;;;;;;5050955;28;20190;-74
2021/11/30 02:11:35;;;;;;;0.10;0.10;;;2.30;98.50;;;;;;5052804;28;20186;-74
2021/11/30 02:14:01;;;;;;;0.10;0.10;;;2.20;98.50;;;;;;5048291;28;20806;-74
2021/11/30 02:16:28;;;;;;;0.10;0.10;;;2.10;98.50;;;;;;5052408;28;20311;-74
2021/11/30 02:18:56;;;;;;;0.00;0.00;;;2.10;98.50;;;;;;5055044;28;20187;-74
2021/11/30 02:21:24;;;;;;;0.10;0.10;;;1.90;98.50;;;;;;5052848;28;20206;-74
2021/11/30 02:26:21;;;;;;;0.00;0.00;;;1.70;98.50;;;;;;5060530;28;20183;-74
2021/11/30 02:28:50;;;;;;;0.00;0.00;;;1.70;98.50;;;;;;5050774;28;20179;-74
2021/11/30 02:31:18;;;;;;;0.00;0.00;;;1.60;98.50;;;;;;5051137;28;20187;-73
2021/11/30 02:33:44;;;;;;;0.00;0.00;;;1.50;98.50;;;;;;5055458;28;20735;-73
2021/11/30 02:36:30;;;;;;;0.00;0.00;;;1.50;98.50;;;;;;5047661;28;20175;-73
2021/11/30 02:38:58;;;;;;;0.00;0.00;;;1.40;98.50;;;;;;5056872;28;20314;-73
2021/11/30 02:41:25;;;;;;;0.10;0.10;;;1.40;98.50;;;;;;5048640;28;20180;-74
2021/11/30 02:43:51;;;;;;;0.00;0.00;;;1.30;98.50;;;;;;5054773;28;20194;-73
2021/11/30 02:46:36;;;;;;;0.00;0.00;;;1.30;98.50;;;;;;5052396;28;20194;-74
2021/11/30 02:49:08;;;;;;;0.10;0.10;;;1.20;98.50;;;;;;5057447;28;20605;-74
2021/11/30 02:51:35;;;;;;;0.00;0.00;;;1.20;98.50;;;;;;5051213;28;20598;-74
2021/11/30 02:54:06;;;;;;;0.00;0.00;;;1.20;98.50;;;;;;5050821;28;20180;-73
2021/11/30 02:56:41;;;;;;;0.00;0.00;;;1.20;98.50;;;;;;5053508;28;20192;-74
2021/11/30 02:59:07;;;;;;;0.00;0.00;;;1.20;98.50;;;;;;5053362;28;20182;-74
2021/11/30 03:01:33;;;;;;;0.00;0.00;;;1.20;98.50;;;;;;5039485;28;20187;-74
2021/11/30 03:03:59;;;;;;;0.20;0.20;;;1.20;98.50;;;;;;5048682;28;20180;-74
2021/11/30 03:06:25;;;;;;;0.10;0.10;;;1.20;98.50;;;;;;5056497;28;20179;-74
2021/11/30 03:08:50;;;;;;;0.10;0.10;;;1.20;98.50;;;;;;5055306;28;20191;-74
2021/11/30 03:11:16;;;;;;;0.10;0.10;;;1.20;98.50;;;;;;5056645;28;20195;-74
2021/11/30 03:13:42;;;;;;;0.00;0.00;;;1.20;98.50;;;;;;5058280;28;20199;-74
2021/11/30 03:16:08;;;;;;;0.10;0.10;;;1.20;98.50;;;;;;5054802;28;20176;-74
2021/11/30 03:18:36;;;;;;;0.10;0.10;;;1.20;98.50;;;;;;5058928;28;20652;-74
2021/11/30 03:21:05;;;;;;;0.03;0.03;;;1.20;98.50;;;;;;5055446;28;20359;-74
2021/11/30 03:23:31;;;;;;;0.10;0.10;;;1.20;98.50;;;;;;5052590;28;20221;-74
2021/11/30 03:25:56;;;;;;;0.00;0.00;;;1.20;98.50;;;;;;5058836;28;20956;-74
2021/11/30 03:28:22;;;;;;;0.10;0.10;;;1.20;98.50;;;;;;5047706;28;20188;-74
2021/11/30 03:31:01;;;;;;;0.10;0.10;;;1.20;98.50;;;;;;5048666;28;20188;-74
2021/11/30 03:36:11;;;;;;;0.00;0.00;;;1.20;98.50;;;;;;5053895;28;20205;-73
2021/11/30 03:38:37;;;;;;;0.10;0.10;;;1.20;98.50;;;;;;5050801;28;20560;-73
2021/11/30 03:41:03;;;;;;;0.10;0.10;;;1.20;98.50;;;;;;5062231;28;20182;-73
2021/11/30 03:43:28;;;;;;;0.20;0.20;;;1.10;98.50;;;;;;5058596;28;20187;-73
2021/11/30 03:45:54;;;;;;;0.10;0.10;;;1.10;98.50;;;;;;5052108;28;20218;-73
2021/11/30 03:48:20;;;;;;;0.07;0.07;;;1.10;98.50;;;;;;5053672;28;20180;-74
2021/11/30 03:50:46;;;;;;;0.10;0.10;;;1.10;98.50;;;;;;5054722;28;20650;-74
2021/11/30 03:53:12;;;;;;;0.37;0.10;;;1.00;98.50;;;;;;5051755;28;20650;-73
2021/11/30 03:55:38;;;;;;;0.10;0.10;;;1.00;98.50;;;;;;5058787;28;20186;-73
2021/11/30 03:58:03;;;;;;;0.20;0.20;;;0.90;98.50;;;;;;5052513;28;20226;-74
2021/11/30 04:00:29;;;;;;;0.10;0.10;;;0.90;98.50;;;;;;5051541;28;20185;-73
2021/11/30 04:02:55;;;;;;;0.10;0.10;;;0.80;98.50;;;;;;5051681;28;20199;-75
2021/11/30 04:05:21;;;;;;;0.40;0.40;;;0.80;98.50;;;;;;5056009;28;20206;-74
2021/11/30 04:07:46;;;;;;;0.23;0.23;;;0.80;98.50;;;;;;5052128;28;20570;-74
2021/11/30 04:10:12;;;;;;;0.20;0.20;;;0.80;98.50;;;;;;5052270;28;20678;-74
2021/11/30 04:12:38;;;;;;;0.40;0.10;;;0.80;98.50;;;;;;5054593;28;20714;-75
2021/11/30 04:15:04;;;;;;;0.20;0.20;;;0.80;98.50;;;;;;5051724;28;20180;-74
2021/11/30 04:17:30;;;;;;;0.10;0.10;;;0.80;98.50;;;;;;5055648;28;20184;-73
2021/11/30 04:19:56;;;;;;;0.47;0.40;;;0.80;98.50;;;;;;5049373;28;20771;-74
2021/11/30 04:22:21;;;;;;;0.20;0.20;;;0.80;98.50;;;;;;5052801;28;20181;-75
2021/11/30 04:24:47;;;;;;;0.30;0.20;;;0.80;98.50;;;;;;5053667;28;20297;-75
2021/11/30 04:27:13;;;;;;;0.10;0.10;;;0.80;98.50;;;;;;5056679;28;20183;-75
2021/11/30 04:29:41;;;;;;;0.17;0.13;;;0.70;98.50;;;;;;5048586;28;20180;-74
2021/11/30 04:32:08;;;;;;;0.13;0.13;;;0.70;98.50;;;;;;5046775;28;20273;-74
2021/11/30 04:34:34;;;;;;;0.10;0.10;;;0.70;98.50;;;;;;5062177;28;20174;-75
2021/11/30 04:37:00;;;;;;;0.10;0.10;;;0.70;98.50;;;;;;5053919;28;20198;-75
2021/11/30 04:39:26;;;;;;;0.23;0.23;;;0.70;98.50;;;;;;5059581;28;20182;-75
2021/11/30 04:41:51;;;;;;;0.27;0.27;;;0.70;98.50;;;;;;5053089;28;20183;-74
2021/11/30 04:44:19;;;;;;;0.10;0.10;;;0.70;98.50;;;;;;5057508;28;20225;-74
2021/11/30 04:47:04;;;;;;;0.27;0.20;;;0.60;98.50;;;;;;5054189;28;20184;-73
2021/11/30 04:51:56;;;;;;;0.57;0.57;;;0.60;98.50;;;;;;5049982;28;20301;-75
2021/11/30 04:54:22;;;;;;;0.10;0.10;;;0.60;98.50;;;;;;5050275;28;20655;-74
2021/11/30 04:56:48;;;;;;;0.30;0.30;;;0.60;98.50;;;;;;5057041;28;20632;-74
2021/11/30 04:59:17;;;;;;;0.20;0.20;;;0.50;98.50;;;;;;5048452;28;20196;-75
2021/11/30 05:01:43;;;;;;;0.17;0.17;;;0.50;98.50;;;;;;5044664;28;20183;-75
2021/11/30 05:04:08;;;;;;;0.43;0.43;;;0.50;98.50;;;;;;5049086;28;20288;-74
2021/11/30 05:06:34;;;;;;;0.57;0.57;;;0.50;98.50;;;;;;5047811;28;20234;-75
2021/11/30 05:09:02;;;;;;;0.10;0.10;;;0.40;98.50;;;;;;5049047;28;20190;-75
2021/11/30 05:11:28;;;;;;;0.20;0.20;;;0.40;98.50;;;;;;5052078;28;20376;-74
2021/11/30 05:13:54;;;;;;;0.10;0.10;;;0.40;98.50;;;;;;5049551;28;20184;-75
2021/11/30 05:16:20;;;;;;;0.93;0.60;;;0.30;98.50;;;;;;5054599;28;20195;-75
2021/11/30 05:18:46;;;;;;;0.20;0.20;;;0.30;98.50;;;;;;5055620;28;20685;-75
2021/11/30 05:21:11;;;;;;;0.50;0.50;;;0.20;98.50;;;;;;5043775;28;20193;-75
2021/11/30 05:23:38;;;;;;;0.20;0.20;;;0.30;98.50;;;;;;5049695;28;20195;-75
2021/11/30 05:26:05;;;;;;;0.20;0.20;;;0.30;98.50;;;;;;5054387;28;20206;-75
2021/11/30 05:28:33;;;;;;;0.50;0.50;;;0.30;98.50;;;;;;5053360;28;20209;-75
2021/11/30 05:31:00;;;;;;;0.53;0.30;;;0.30;98.50;;;;;;5047956;28;20192;-75
2021/11/30 05:33:26;;;;;;;0.50;0.50;;;0.30;98.50;;;;;;5053207;28;20206;-75
2021/11/30 05:35:52;;;;;;;0.10;0.10;;;0.30;98.50;;;;;;5050485;28;20192;-75
2021/11/30 05:38:17;;;;;;;0.83;0.83;;;0.20;98.50;;;;;;5048914;28;20179;-75
2021/11/30 05:40:43;;;;;;;0.43;0.43;;;0.30;98.50;;;;;;5046719;28;20237;-75
2021/11/30 05:43:11;;;;;;;0.70;0.70;;;0.20;98.50;;;;;;5052112;28;20218;-75
2021/11/30 05:45:37;;;;;;;0.53;0.53;;;0.20;98.50;;;;;;5052942;28;20214;-75
2021/11/30 05:48:03;;;;;;;0.43;0.43;;;0.20;98.50;;;;;;5048806;28;20267;-75
2021/11/30 05:50:29;;;;;;;0.43;0.33;;;0.20;98.50;;;;;;5051608;28;20271;-74
2021/11/30 05:52:54;;;;;;;0.83;0.83;;;0.20;98.50;;;;;;5046459;28;20187;-76
2021/11/30 05:55:20;;;;;;;0.70;0.70;;;0.20;98.50;;;;;;5049396;28;20191;-74
2021/11/30 05:57:46;;;;;;;0.33;0.33;;;0.20;98.50;;;;;;5049098;28;20245;-76
2021/11/30 06:00:16;;;;;;;0.57;0.57;;;0.20;98.50;;;;;;5049969;28;21529;-76
2021/11/30 06:05:36;;;;;;;0.47;0.47;;;0.20;98.50;;;;;;5047388;28;20728;-75
2021/11/30 06:08:03;;;;;;;1.17;0.40;;;0.20;98.50;;;;;;5043810;28;20274;-74
2021/11/30 06:10:29;;;;;;;0.60;0.60;;;0.20;98.50;;;;;;5046914;28;20191;-75
2021/11/30 06:12:55;;;;;;;0.57;0.57;;;0.20;98.50;;;;;;5045955;28;20344;-76
2021/11/30 06:15:21;;;;;;;0.57;0.57;;;0.20;98.50;;;;;;5047651;28;20182;-76
2021/11/30 06:17:47;;;;;;;0.33;0.33;;;0.20;98.50;;;;;;5047463;28;20274;-75
2021/11/30 06:20:15;;;;;;;0.80;0.80;;;0.10;98.50;;;;;;5048859;28;20890;-74
2021/11/30 06:22:40;;;;;;;0.60;0.50;;;0.10;98.50;;;;;;5046860;28;20197;-75
2021/11/30 06:25:07;;;;;;;0.60;0.60;;;0.10;98.50;;;;;;5046637;28;20215;-75
2021/11/30 06:27:34;;;;;;;0.63;0.63;;;0.10;98.50;;;;;;5044784;28;20179;-75
2021/11/30 06:29:59;;;;;;;0.30;0.30;;;0.10;98.50;;;;;;5049419;28;20661;-75
2021/11/30 06:32:25;;;;;;;0.33;0.33;;;0.10;98.50;;;;;;5041569;28;20188;-73
2021/11/30 06:34:52;;;;;;;0.53;0.53;;;0.10;98.50;;;;;;5041454;28;20641;-75
2021/11/30 06:37:18;;;;;;;0.50;0.30;;;0.20;98.50;;;;;;5043108;28;20269;-79
2021/11/30 06:39:45;;;;;;;0.33;0.33;;;0.10;98.50;;;;;;5042514;28;20270;-76
2021/11/30 06:42:10;;;;;;;0.83;0.47;;;0.20;98.50;;;;;;5052583;28;20187;-76
2021/11/30 06:44:36;;;;;;;1.53;0.90;;;0.20;98.50;;;;;;5047094;28;20212;-75
2021/11/30 06:47:03;;;;;;;0.20;0.20;;;0.20;98.50;;;;;;5047738;28;20234;-75
2021/11/30 06:49:29;;;;;;;0.57;0.57;;;0.20;98.50;;;;;;5043248;28;20216;-75
2021/11/30 06:51:55;;;;;;;0.50;0.50;;;0.20;98.50;;;;;;5047233;28;20188;-76
2021/11/30 06:54:21;;;;;;;0.60;0.60;;;0.20;98.50;;;;;;5043629;28;20186;-75
2021/11/30 06:56:46;;;;;;;0.57;0.57;;;0.20;98.50;;;;;;5047542;28;20734;-75
2021/11/30 06:59:12;;;;;;;2.13;1.00;;;0.10;98.50;;;;;;5043846;28;20196;-75
2021/11/30 07:01:38;;;;;;;0.60;0.60;;;0.10;98.50;;;;;;5043428;28;20199;-71
2021/11/30 07:04:05;;;;;;;0.30;0.30;;;0.10;98.50;;;;;;5039549;28;20232;-78
2021/11/30 07:11:54;;;;;;;0.53;0.53;;;0.00;98.50;;;;;;5046902;28;20191;-74
2021/11/30 07:14:20;;;;;;;1.10;0.87;;;0.10;98.50;;;;;;5047280;28;20195;-75
2021/11/30 07:16:47;;;;;;;0.30;0.30;;;0.00;98.50;;;;;;5047407;28;20179;-74
2021/11/30 07:19:13;;;;;;;2.80;0.80;;;0.00;98.50;;;;;;5049406;28;20774;-72
2021/11/30 07:21:40;;;;;;;1.07;0.67;;;0.00;98.50;;;;;;5042640;28;20234;-77
2021/11/30 07:24:06;;;;;;;1.00;1.00;;;0.00;98.50;;;;;;5047327;28;20622;-77
2021/11/30 07:26:32;;;;;;;0.90;0.70;;;0.00;98.50;;;;;;5046135;28;20192;-78
2021/11/30 07:28:58;;;;;;;0.80;0.80;;;0.00;98.50;;;;;;5045542;28;20180;-77
2021/11/30 07:31:23;;;;;;;0.83;0.80;;;0.00;98.50;;;;;;5044277;28;20245;-77
2021/11/30 07:33:49;;;;;;;2.90;1.10;;;0.10;98.50;;;;;;5052350;28;20262;-75
2021/11/30 07:36:17;;;;;;;0.73;0.73;;;0.10;98.50;;;;;;5054093;28;20183;-75
2021/11/30 07:38:46;;;;;;;0.30;0.30;;;0.00;98.50;;;;;;5049828;28;20179;-72
2021/11/30 07:41:13;;;;;;;0.80;0.80;;;0.10;98.50;;;;;;5053969;28;20188;-76
2021/11/30 07:43:39;;;;;;;1.20;1.20;;;0.10;98.50;;;;;;5051688;28;20228;-73
2021/11/30 07:46:06;;;;;;;0.63;0.63;;;0.10;98.50;;;;;;5052345;28;20277;-74
2021/11/30 07:48:32;;;;;;;2.00;0.80;;;0.10;98.50;;;;;;5049610;28;20202;-73
2021/11/30 07:51:00;;;;;;;0.50;0.50;;;0.10;98.50;;;;;;5054436;28;20263;-75
2021/11/30 07:53:26;;;;;;;1.50;0.93;;;0.20;98.50;;;;;;5062210;28;20183;-73
2021/11/30 07:55:53;;;;;;;0.70;0.70;;;0.20;98.50;;;;;;5057916;28;20191;-74
2021/11/30 07:58:21;;;;;;;2.73;0.90;;;0.20;98.50;;;;;;5052007;28;20187;-72
2021/11/30 08:00:48;;;;;;;1.30;1.27;;;0.20;98.50;;;;;;5054329;28;20179;-73
2021/11/30 08:03:13;;;;;;;1.37;1.27;;;0.20;98.50;;;;;;5055232;28;20186;-72
2021/11/30 08:05:39;;;;;;;2.30;0.90;;;0.20;98.50;;;;;;5051117;28;20219;-72
2021/11/30 08:08:05;;;;;;;2.10;1.20;;;0.10;98.50;;;;;;5052493;28;20176;-73
2021/11/30 08:10:32;;;;;;;1.60;1.40;;;0.10;98.50;;;;;;5050827;28;20705;-74
2021/11/30 08:12:58;;;;;;;1.97;1.87;;;0.10;98.50;;;;;;5055461;28;20288;-75
2021/11/30 08:15:24;;;;;;;1.50;1.37;;;0.20;98.50;;;;;;5051820;28;20304;-75
2021/11/30 08:17:50;;;;;;;2.07;1.67;;;0.20;98.50;;;;;;5052443;28;20174;-75
2021/11/30 08:20:15;;;;;;;0.97;0.97;;;0.10;98.50;;;;;;5051957;28;20963;-73
2021/11/30 08:22:42;;;;;;;2.30;1.70;;;0.10;98.50;;;;;;5050102;28;20179;-75
2021/11/30 08:25:09;;;;;;;2.60;1.57;;;0.10;98.50;;;;;;5049813;28;20234;-75
2021/11/30 08:27:35;;;;;;;0.70;0.70;;;0.10;98.50;;;;;;5052730;28;20180;-75
2021/11/30 08:30:01;;;;;;;2.30;0.87;;;0.00;98.50;;;;;;5049758;28;20326;-75
2021/11/30 08:32:28;;;;;;;1.33;1.17;;;0.00;98.50;;;;;;5046419;28;20175;-74
2021/11/30 08:34:55;;;;;;;2.60;1.83;;;0.00;98.50;;;;;;5050282;28;20761;-75
2021/11/30 08:37:22;;;;;;;2.13;2.00;;;0.00;98.50;;;;;;5050028;28;20307;-74
2021/11/30 08:39:49;;;;;;;1.87;1.77;;;0.00;98.50;;;;;;5049120;28;20668;-74
2021/11/30 08:42:16;;;;;;;1.93;1.83;;;0.00;98.50;;;;;;5046688;28;20179;-74
2021/11/30 08:44:42;;;;;;;1.27;1.27;;;0.00;98.50;;;;;;5051067;28;20686;-75
2021/11/30 08:47:10;;;;;;;1.40;1.40;;;0.00;98.50;;;;;;5047331;28;20172;-75
2021/11/30 08:49:36;;;;;;;1.07;1.07;;;0.00;98.50;;;;;;5049598;28;20666;-75
2021/11/30 08:52:05;;;;;;;2.03;1.13;;;0.00;98.50;;;;;;5052318;28;20186;-74
2021/11/30 08:54:31;;;;;;;2.03;1.70;;;0.00;98.50;;;;;;5046945;28;20278;-75
2021/11/30 08:56:58;;;;;;;1.80;1.53;;;0.00;98.50;;;;;;5047660;28;20599;-74
2021/11/30 08:59:24;;;;;;;1.27;1.23;;;0.00;98.50;;;;;;5049699;28;20244;-75
2021/11/30 09:01:51;;;;;;;2.10;2.00;;;0.00;98.50;;;;;;5048465;28;20226;-75
2021/11/30 09:04:16;;;;;;;1.87;1.70;;;0.00;98.50;;;;;;5050616;28;20171;-75
2021/11/30 09:06:42;;;;;;;2.17;2.00;;;0.00;98.50;;;;;;5046806;28;20261;-75
2021/11/30 09:09:09;;;;;;;2.07;1.97;;;0.10;98.50;;;;;;5051982;28;20727;-74
2021/11/30 09:11:36;;;;;;;2.87;1.63;;;0.10;98.30;;;;;;5055487;28;20240;-75
2021/11/30 09:14:03;;;;;;;2.27;2.07;;;0.10;97.90;;;;;;5050712;28;20191;-75
2021/11/30 09:16:29;;;;;;;3.23;2.97;;;0.10;97.90;;;;;;5050487;28;20723;-75
2021/11/30 09:18:56;;;;;;;2.33;2.13;;;0.10;97.50;;;;;;5055957;28;20683;-75
2021/11/30 09:21:23;;;;;;;2.70;2.50;;;0.10;97.20;;;;;;5052955;28;20249;-73
2021/11/30 09:23:48;;;;;;;4.43;3.03;;;0.10;97.50;;;;;;5046250;28;20190;-74
2021/11/30 09:26:14;;;;;;;2.67;2.47;;;0.20;97.40;;;;;;5042857;28;20211;-74
2021/11/30 09:28:41;;;;;;;5.07;3.13;;;0.20;97.10;;;;;;5047767;28;20810;-74
2021/11/30 09:31:07;;;;;;;3.43;3.13;;;0.20;96.60;;;;;;5045811;28;20186;-74
2021/11/30 09:33:33;;;;;;;2.90;2.70;;;0.20;96.30;;;;;;5046617;28;20183;-74
2021/11/30 09:36:00;;;;;;;2.20;2.10;;;0.20;96.50;;;;;;5043561;28;20228;-74
2021/11/30 09:38:27;;;;;;;3.23;2.20;;;0.30;96.40;;;;;;5051118;28;20187;-75
2021/11/30 09:40:58;;;;;;;3.60;2.43;;;0.30;96.10;;;;;;5053593;28;20215;-74
2021/11/30 09:43:25;;;;;;;2.57;1.33;;;0.30;95.70;;;;;;5048728;28;20762;-75
2021/11/30 09:45:54;;;;;;;2.93;2.53;;;0.40;95.80;;;;;;5049227;28;20342;-75
2021/11/30 09:48:21;;;;;;;1.93;1.87;;;0.40;95.20;;;;;;5048535;28;20221;-75
2021/11/30 09:50:47;;;;;;;2.33;2.23;;;0.40;95.50;;;;;;5050438;28;20247;-75
2021/11/30 09:53:14;;;;;;;2.67;2.20;;;0.40;95.40;;;;;;5048776;28;20753;-75
2021/11/30 09:55:41;;;;;;;1.90;1.80;;;0.50;95.30;;;;;;5046963;28;20186;-74
2021/11/30 09:58:07;;;;;;;2.33;2.13;;;0.40;94.60;;;;;;5050529;28;20202;-75
2021/11/30 10:00:35;;;;;;;3.57;2.27;;;0.50;95.00;;;;;;5046365;28;20231;-75
2021/11/30 10:03:02;;;;;;;3.93;2.30;;;0.50;94.80;;;;;;5044436;28;20872;-75
2021/11/30 10:05:29;;;;;;;2.80;2.60;;;0.50;93.80;;;;;;5046019;28;20238;-75
2021/11/30 10:07:56;;;;;;;4.63;2.27;;;0.50;93.90;;;;;;5041108;28;20194;-74
2021/11/30 10:10:30;;;;;;;1.17;1.07;;;0.50;94.40;;;;;;5047534;28;20186;-75
2021/11/30 10:13:05;;;;;;;2.50;2.30;;;0.50;93.30;;;;;;5045190;28;20266;-75
2021/11/30 10:15:48;;;;;;;2.47;2.30;;;0.50;93.60;;;;;;5044689;28;20222;-74
2021/11/30 10:18:17;;;;;;;2.37;2.17;;;0.50;93.20;;;;;;5040099;28;20262;-74
2021/11/30 10:20:44;;;;;;;2.43;2.20;;;0.50;93.40;;;;;;5043633;28;20187;-74
2021/11/30 10:23:09;;;;;;;1.80;1.80;;;0.50;93.20;;;;;;5046743;28;20211;-74
2021/11/30 10:25:38;;;;;;;2.60;2.13;;;0.50;92.60;;;;;;5045969;28;20215;-74
2021/11/30 10:28:07;;;;;;;1.87;1.77;;;0.50;92.90;;;;;;5045754;28;20179;-74
2021/11/30 10:30:36;;;;;;;1.70;1.70;;;0.50;92.40;;;;;;5046149;28;20278;-75
2021/11/30 10:33:05;;;;;;;1.70;1.70;;;0.50;92.20;;;;;;5051891;28;20215;-74
2021/11/30 10:35:31;;;;;;;2.63;1.87;;;0.70;93.10;;;;;;5053121;28;20187;-74
2021/11/30 10:37:58;;;;;;;2.20;1.97;;;0.90;93.10;;;;;;5043953;28;20219;-74
2021/11/30 10:40:27;;;;;;;2.40;2.27;;;0.90;91.50;;;;;;5052686;28;20199;-74
2021/11/30 10:42:58;;;;;;;1.57;1.47;;;1.10;91.80;;;;;;5054276;28;20179;-75
2021/11/30 10:45:29;;;;;;;1.77;1.67;;;1.20;90.50;;;;;;5045769;28;20218;-75
2021/11/30 10:48:24;;;;;;;2.67;2.47;;;1.40;91.20;;;;;;5052919;28;20179;-75
2021/11/30 10:50:55;;;;;;;2.90;1.60;;;1.70;90.10;;;;;;5055341;28;20187;-74
2021/11/30 10:53:28;;;;;;;2.30;2.10;;;2.00;89.90;;;;;;5053176;28;20207;-76
2021/11/30 10:56:01;;;;;;;2.87;2.13;;;2.30;89.70;;;;;;5053015;28;20179;-76
2021/11/30 10:58:32;;;;;;;2.83;2.63;;;2.70;87.70;;;;;;5053472;28;20187;-76
2021/11/30 11:01:00;;;;;;;2.83;2.63;;;2.90;86.60;;;;;;5050737;28;20611;-74
2021/11/30 11:03:27;;;;;;;3.57;2.00;;;3.10;86.00;;;;;;5053401;28;20171;-75
2021/11/30 11:08:42;;;;;;;2.63;2.37;;;3.10;84.80;;;;;;5049696;28;20195;-74
2021/11/30 11:11:09;;;;;;;5.53;2.87;;;3.20;84.70;;;;;;5049616;28;20175;-75
2021/11/30 11:13:37;;;;;;;2.37;2.27;;;3.30;84.20;;;;;;5048271;28;21892;-76
2021/11/30 11:16:06;;;;;;;2.43;2.23;;;3.20;83.80;;;;;;5057183;28;20183;-75
2021/11/30 11:18:37;;;;;;;2.67;2.47;;;3.00;84.20;;;;;;5051594;28;20179;-76
2021/11/30 11:21:24;;;;;;;5.43;2.33;;;3.00;84.60;;;;;;5050517;28;20245;-78
2021/11/30 11:24:17;;;;;;;3.03;2.83;;;3.10;85.30;;;;;;5050509;28;20301;-76
2021/11/30 11:26:52;;;;;;;2.07;2.03;;;3.30;85.20;;;;;;5049086;28;20196;-75
2021/11/30 11:29:24;;;;;;;3.27;2.27;;;3.40;83.70;;;;;;5050385;28;20641;-75
2021/11/30 11:32:00;;;;;;;2.27;2.10;;;3.70;83.00;;;;;;5052871;28;20258;-75
2021/11/30 11:34:28;;;;;;;2.93;2.77;;;3.80;82.50;;;;;;5045710;28;20183;-74
2021/11/30 11:36:56;;;;;;;2.80;2.60;;;3.70;82.50;;;;;;5052842;28;20183;-75
2021/11/30 11:39:24;;;;;;;4.53;2.87;;;3.80;82.70;;;;;;5050385;28;20217;-74
2021/11/30 11:41:55;;;;;;;5.00;2.80;;;3.90;82.90;;;;;;5048071;28;20187;-74
2021/11/30 11:44:22;;;;;;;3.83;2.63;;;3.70;81.70;;;;;;5050646;28;20176;-75
2021/11/30 11:46:50;;;;;;;2.37;2.27;;;3.40;81.70;;;;;;5048908;28;20237;-75
2021/11/30 11:49:23;;;;;;;2.60;2.13;;;3.20;82.60;;;;;;5048817;28;20985;-74
2021/11/30 11:51:51;;;;;;;2.33;2.13;;;3.30;83.40;;;;;;5049672;28;20286;-73
2021/11/30 11:54:29;;;;;;;2.13;2.00;;;3.50;83.20;;;;;;5055568;28;20181;-75
2021/11/30 11:57:05;;;;;;;2.43;2.33;;;3.60;82.10;;;;;;5051792;28;20624;-75
2021/11/30 11:59:51;;;;;;;2.23;2.13;;;3.60;82.00;;;;;;5051193;28;20203;-75
2021/11/30 12:02:24;;;;;;;2.20;2.10;;;3.50;80.50;;;;;;5047939;28;20200;-75
2021/11/30 12:05:07;;;;;;;2.07;1.97;;;3.30;81.50;;;;;;5048997;28;20199;-75
2021/11/30 12:07:57;;;;;;;2.83;2.10;;;3.20;81.50;;;;;;5049659;28;20190;-76
2021/11/30 12:10:25;;;;;;;2.63;2.43;;;3.10;82.70;;;;;;5045967;28;20182;-76
2021/11/30 12:13:22;;;;;;;3.47;2.57;;;3.20;83.10;;;;;;5050228;28;20214;-76
2021/11/30 12:16:00;;;;;;;3.10;2.50;;;3.20;82.40;;;;;;5050542;28;20195;-75
2021/11/30 12:18:30;;;;;;;5.17;1.90;;;3.20;81.90;;;;;;5049435;28;20240;-76
2021/11/30 12:21:20;;;;;;;1.40;1.37;;;3.10;82.50;;;;;;5051773;28;20186;-76
2021/11/30 12:23:52;;;;;;;2.47;2.37;;;3.00;83.00;;;;;;5044516;28;20179;-74
2021/11/30 12:26:42;;;;;;;3.70;2.20;;;2.90;83.50;;;;;;5048698;28;21060;-74
2021/11/30 12:29:17;;;;;;;2.23;2.03;;;2.90;83.30;;;;;;5045031;28;20195;-74
2021/11/30 12:31:43;;;;;;;2.17;2.00;;;2.80;83.50;;;;;;5044315;28;20266;-75
2021/11/30 12:34:09;;;;;;;3.57;1.67;;;2.60;82.80;;;;;;5052082;28;20194;-75
2021/11/30 12:36:38;;;;;;;2.97;1.83;;;2.30;83.00;;;;;;5045856;28;20708;-75
2021/11/30 12:39:07;;;;;;;1.60;1.50;;;2.10;84.10;;;;;;5046553;28;20232;-75
2021/11/30 12:41:45;;;;;;;1.87;1.70;;;1.90;84.60;;;;;;5051454;28;20621;-74
2021/11/30 12:44:16;;;;;;;1.60;1.50;;;1.80;84.80;;;;;;5051466;28;20183;-75
2021/11/30 12:46:50;;;;;;;5.17;1.70;;;1.70;85.00;;;;;;5048521;28;20191;-76
2021/11/30 12:49:32;;;;;;;1.63;1.60;;;1.60;85.40;;;;;;5049679;28;20182;-76
2021/11/30 12:52:37;;;;;;;1.40;1.40;;;1.60;85.80;;;;;;5044261;28;20669;-77
2021/11/30 12:55:08;;;;;;;2.60;1.20;;;1.50;85.80;;;;;;5052338;28;20223;-74
2021/11/30 12:57:34;;;;;;;1.63;1.53;;;1.40;85.90;;;;;;5054923;28;20556;-73
2021/11/30 13:00:41;;;;;;;1.10;1.10;;;1.30;85.80;;;;;;5045818;28;20194;-73
2021/11/30 13:03:21;;;;;;;1.17;1.10;;;1.20;85.70;;;;;;5039139;28;20270;-73
2021/11/30 13:05:57;;;;;;;1.60;1.33;;;1.00;85.80;;;;;;5040908;28;20211;-74
2021/11/30 13:08:23;;;;;;;2.63;1.27;;;0.90;86.60;;;;;;5041604;28;20265;-72
2021/11/30 13:10:55;;;;;;;1.20;1.20;;;0.80;87.10;;;;;;5041614;28;20688;-73
2021/11/30 13:13:26;;;;;;;1.33;1.20;;;0.70;87.20;;;;;;5041735;28;20179;-72
2021/11/30 13:16:00;;;;;;;1.60;1.60;;;0.60;87.30;;;;;;5040662;28;20202;-72
2021/11/30 13:18:32;;;;;;;2.03;1.93;;;0.60;87.30;;;;;;5039368;28;20597;-74
2021/11/30 13:20:58;;;;;;;0.83;0.83;;;0.60;87.60;;;;;;5041207;28;20187;-74